Othello — LXOD — position and weather

sailwx.info

Track history (hours):
 
Tides and Currents Weather Stations Pressure Air Temp Water Temp Dewpoint Dewpoint Depression Visibility Wind Speed Wind Dir Waves Ship Positions

Othello

Last reported at 2015-May-02 07:19 UTC. Time now 2015-May-04 20:07 UTC.
Position N 49°43' W 000°54'.

Length 104 m; draft 7.5 m.

Type: Ship. MMSI: 253279000.

Date/timePositionNaut miles runAvg speedWind from/ knotsBaromVisibWave heightAir tempDewpointWater temp
2015-May-02 07:19N 49°43' W 000°54'8 9.9
2015-May-02 06:33N 49°40' W 000°43'1010.1
2015-May-02 05:33N 49°36' W 000°29'1111.3
2015-May-02 04:33N 49°32' W 000°13'1211.7
2015-May-02 03:34N 49°29' E 000°04'4 3.8
2015-May-02 02:32N 49°29' E 000°10'2 1.8
2015-May-02 01:32N 49°28' E 000°13'0 0.0
2015-May-02 00:32N 49°28' E 000°13'0 0.0
2015-May-01 23:32N 49°28' E 000°13'0 0.0
2015-May-01 22:32N 49°28' E 000°13'0 0.0
2015-May-01 21:32N 49°28' E 000°13'0 0.0
2015-May-01 20:32N 49°28' E 000°13'0 0.0
2015-May-01 19:32N 49°28' E 000°13'0 0.0
2015-May-01 18:32N 49°28' E 000°13'0 0.0
2015-May-01 17:32N 49°28' E 000°13'0 0.0
2015-May-01 16:32N 49°28' E 000°13'0 0.0
2015-May-01 15:32N 49°28' E 000°13'0 0.0
2015-May-01 14:32N 49°28' E 000°13'0 0.0
2015-May-01 13:32N 49°28' E 000°13'0 0.0
2015-May-01 12:32N 49°28' E 000°13'0 0.0
2015-May-01 11:32N 49°28' E 000°13'0 0.0
2015-May-01 10:32N 49°28' E 000°13'0 0.0
2015-May-01 09:32N 49°28' E 000°13'0 0.0
2015-May-01 08:32N 49°28' E 000°13'0 0.0
2015-May-01 07:32N 49°28' E 000°13'0 0.0
2015-May-01 06:32N 49°28' E 000°13'0 0.0
2015-May-01 05:32N 49°28' E 000°13'0 0.0
2015-May-01 04:32N 49°28' E 000°13'0 0.0
2015-May-01 03:32N 49°28' E 000°13'0 0.0
2015-May-01 02:32N 49°28' E 000°13'0 0.0
2015-May-01 01:29N 49°28' E 000°13'0 0.0
2015-May-01 00:32N 49°28' E 000°13'0 0.0
2015-Apr-30 23:26N 49°28' E 000°13'0 0.0
2015-Apr-30 22:32N 49°28' E 000°13'0 0.0
2015-Apr-30 21:32N 49°28' E 000°13'0 0.0
2015-Apr-30 20:32N 49°28' E 000°13'0 0.0
2015-Apr-30 19:32N 49°28' E 000°13'0 0.0
2015-Apr-30 18:32N 49°28' E 000°13'0 0.0
2015-Apr-30 17:32N 49°28' E 000°13'0 0.0
2015-Apr-30 16:32N 49°28' E 000°13'0 0.0
2015-Apr-30 15:26N 49°28' E 000°13'2 2.1
2015-Apr-30 14:33N 49°29' E 000°10'1 1.3
2015-Apr-30 13:33N 49°28' E 000°08'10 9.6
2015-Apr-30 12:33N 49°31' W 000°06'1010.0
2015-Apr-30 11:33N 49°41' W 000°09'4911.1
2015-Apr-30 07:07N 50°29' E 000°06'710.4
2015-Apr-30 06:28N 50°31' E 000°16'910.4
2015-Apr-30 05:33N 50°34' E 000°30'1111.1
2015-Apr-30 04:33N 50°41' E 000°45'1212.1
2015-Apr-30 03:34N 50°49' E 000°58'1312.5
2015-Apr-30 02:33N 50°57' E 001°14'1212.3
2015-Apr-30 01:33N 51°05' E 001°29'1110.9
2015-Apr-30 00:33N 51°12' E 001°42'1010.3
2015-Apr-29 23:34N 51°21' E 001°51'1010.1
2015-Apr-29 22:33N 51°29' E 001°59'1010.5
2015-Apr-29 21:33N 51°39' E 002°07'1511.5
2015-Apr-29 20:17N 51°52' E 002°19'1512.5
2015-Apr-29 19:05N 52°06' E 002°20'913.4
2015-Apr-29 18:27N 52°15' E 002°20'1213.2
2015-Apr-29 17:33N 52°26' E 002°16'1313.5
2015-Apr-29 16:33N 52°39' E 002°09'1313.0
2015-Apr-29 15:33N 52°48' E 001°53'1313.2
2015-Apr-29 14:34N 52°56' E 001°36'1312.5
2015-Apr-29 13:34N 53°07' E 001°24'1212.1
2015-Apr-29 12:32N 53°17' E 001°14'2411.8
2015-Apr-29 10:31N 53°30' E 000°40'1212.2
2015-Apr-29 09:33N 53°32' E 000°20'1111.0
2015-Apr-29 08:33N 53°35' E 000°03'1111.0
2015-Apr-29 07:33N 53°41' W 000°13'3 3.0
2015-Apr-29 06:32N 53°44' W 000°15'0 0.0
2015-Apr-29 05:32N 53°44' W 000°15'0 0.0
2015-Apr-29 04:32N 53°44' W 000°15'0 0.0
2015-Apr-29 03:29N 53°44' W 000°15'0 0.0
2015-Apr-29 02:32N 53°44' W 000°15'0 0.0
2015-Apr-29 01:32N 53°44' W 000°15'1 0.6
2015-Apr-29 00:34N 53°43' W 000°15'1010.3
2015-Apr-28 23:33N 53°36' W 000°02'1211.6
2015-Apr-28 22:34N 53°33' E 000°17'1313.3
2015-Apr-28 21:33N 53°30' E 000°39'3614.9
2015-Apr-28 19:09N 53°07' E 001°24'914.9
2015-Apr-28 18:34N 52°59' E 001°31'1414.0
2015-Apr-28 17:33N 52°50' E 001°49'1413.6
2015-Apr-28 16:33N 52°42' E 002°07'6014.3
2015-Apr-28 12:23N 52°10' E 003°29'1113.9
2015-Apr-28 11:33N 52°05' E 003°46'1211.9
2015-Apr-28 10:34N 51°59' E 004°03'1010.3
2015-Apr-28 09:34N 51°54' E 004°18'1 1.2
2015-Apr-28 08:28N 51°54' E 004°20'0 0.0
2015-Apr-28 07:04N 51°54' E 004°20'0 0.0
2015-Apr-28 06:16N 51°54' E 004°20'0 0.0
2015-Apr-28 01:04N 51°54' E 004°20'0 0.0
2015-Apr-28 00:22N 51°54' E 004°20'0 0.0
2015-Apr-27 23:28N 51°54' E 004°20'0 0.0
2015-Apr-27 13:10N 51°54' E 004°20'0 0.0
2015-Apr-27 12:07N 51°54' E 004°20'0 0.0
2015-Apr-27 11:10N 51°54' E 004°20'0 0.0
2015-Apr-27 07:22N 51°54' E 004°20'0 0.0
2015-Apr-27 06:22N 51°54' E 004°20'0 0.0
2015-Apr-27 05:13N 51°54' E 004°20'0 0.0
2015-Apr-27 04:28N 51°54' E 004°20'6 6.7
2015-Apr-27 03:33N 51°57' E 004°11'10 9.9
2015-Apr-27 02:33N 52°00' E 003°56'10 9.8
2015-Apr-27 01:33N 51°58' E 003°40'1110.8
2015-Apr-27 00:32N 51°55' E 003°23'1410.8
2015-Apr-26 23:16N 51°51' E 003°02'2910.3
2015-Apr-26 20:27N 51°35' E 002°23'1011.4
2015-Apr-26 19:33N 51°27' E 002°13'1211.7
2015-Apr-26 18:34N 51°16' E 002°06'1111.2
2015-Apr-26 17:34N 51°09' E 001°52'1211.5
2015-Apr-26 16:33N 51°02' E 001°38'  
2015-Apr-23 20:15N 39°39' W 009°58'2313.6
2015-Apr-23 18:34N 39°16' W 009°57'1313.4
2015-Apr-23 17:34N 39°03' W 009°56'1414.0
2015-Apr-23 16:33N 38°49' W 009°57'1313.3
2015-Apr-23 15:33N 38°36' W 009°55'1313.2
2015-Apr-23 14:33N 38°23' W 009°50'1514.3
2015-Apr-23 13:31N 38°09' W 009°45'1313.2
2015-Apr-23 12:33N 37°56' W 009°42'10 9.8
2015-Apr-23 11:33N 37°47' W 009°44'8 8.3
2015-Apr-23 10:33N 37°39' W 009°45'1313.0
2015-Apr-23 09:33N 37°26' W 009°50'1313.2
2015-Apr-23 08:33N 37°13' W 009°55'1313.4
2015-Apr-23 07:33N 37°00' W 009°59'  
Track history (hours):
 
Tides and Currents Weather Stations Pressure Air Temp Water Temp Dewpoint Dewpoint Depression Visibility Wind Speed Wind Dir Waves Ship Positions

Othello

Last reported at 2015-May-02 07:19 UTC. Time now 2015-May-04 20:07 UTC.
Position N 49°43' W 000°54'.

Length 104 m; draft 7.5 m.

Type: Ship. MMSI: 253279000.

Date/timePositionNaut miles runAvg speedWind from/ knotsBaromVisibWave heightAir tempDewpointWater temp
2015-May-02 07:19N 49°43' W 000°54'8 9.9
2015-May-02 06:33N 49°40' W 000°43'1010.1
2015-May-02 05:33N 49°36' W 000°29'1111.3
2015-May-02 04:33N 49°32' W 000°13'1211.7
2015-May-02 03:34N 49°29' E 000°04'4 3.8
2015-May-02 02:32N 49°29' E 000°10'2 1.8
2015-May-02 01:32N 49°28' E 000°13'0 0.0
2015-May-02 00:32N 49°28' E 000°13'0 0.0
2015-May-01 23:32N 49°28' E 000°13'0 0.0
2015-May-01 22:32N 49°28' E 000°13'0 0.0
2015-May-01 21:32N 49°28' E 000°13'0 0.0
2015-May-01 20:32N 49°28' E 000°13'0 0.0
2015-May-01 19:32N 49°28' E 000°13'0 0.0
2015-May-01 18:32N 49°28' E 000°13'0 0.0
2015-May-01 17:32N 49°28' E 000°13'0 0.0
2015-May-01 16:32N 49°28' E 000°13'0 0.0
2015-May-01 15:32N 49°28' E 000°13'0 0.0
2015-May-01 14:32N 49°28' E 000°13'0 0.0
2015-May-01 13:32N 49°28' E 000°13'0 0.0
2015-May-01 12:32N 49°28' E 000°13'0 0.0
2015-May-01 11:32N 49°28' E 000°13'0 0.0
2015-May-01 10:32N 49°28' E 000°13'0 0.0
2015-May-01 09:32N 49°28' E 000°13'0 0.0
2015-May-01 08:32N 49°28' E 000°13'0 0.0
2015-May-01 07:32N 49°28' E 000°13'0 0.0
2015-May-01 06:32N 49°28' E 000°13'0 0.0
2015-May-01 05:32N 49°28' E 000°13'0 0.0
2015-May-01 04:32N 49°28' E 000°13'0 0.0
2015-May-01 03:32N 49°28' E 000°13'0 0.0
2015-May-01 02:32N 49°28' E 000°13'0 0.0
2015-May-01 01:29N 49°28' E 000°13'0 0.0
2015-May-01 00:32N 49°28' E 000°13'0 0.0
2015-Apr-30 23:26N 49°28' E 000°13'0 0.0
2015-Apr-30 22:32N 49°28' E 000°13'0 0.0
2015-Apr-30 21:32N 49°28' E 000°13'0 0.0
2015-Apr-30 20:32N 49°28' E 000°13'0 0.0
2015-Apr-30 19:32N 49°28' E 000°13'0 0.0
2015-Apr-30 18:32N 49°28' E 000°13'0 0.0
2015-Apr-30 17:32N 49°28' E 000°13'0 0.0
2015-Apr-30 16:32N 49°28' E 000°13'0 0.0
2015-Apr-30 15:26N 49°28' E 000°13'2 2.1
2015-Apr-30 14:33N 49°29' E 000°10'1 1.3
2015-Apr-30 13:33N 49°28' E 000°08'10 9.6
2015-Apr-30 12:33N 49°31' W 000°06'1010.0
2015-Apr-30 11:33N 49°41' W 000°09'4911.1
2015-Apr-30 07:07N 50°29' E 000°06'710.4
2015-Apr-30 06:28N 50°31' E 000°16'910.4
2015-Apr-30 05:33N 50°34' E 000°30'1111.1
2015-Apr-30 04:33N 50°41' E 000°45'1212.1
2015-Apr-30 03:34N 50°49' E 000°58'1312.5
2015-Apr-30 02:33N 50°57' E 001°14'1212.3
2015-Apr-30 01:33N 51°05' E 001°29'1110.9
2015-Apr-30 00:33N 51°12' E 001°42'1010.3
2015-Apr-29 23:34N 51°21' E 001°51'1010.1
2015-Apr-29 22:33N 51°29' E 001°59'1010.5
2015-Apr-29 21:33N 51°39' E 002°07'1511.5
2015-Apr-29 20:17N 51°52' E 002°19'1512.5
2015-Apr-29 19:05N 52°06' E 002°20'913.4
2015-Apr-29 18:27N 52°15' E 002°20'1213.2
2015-Apr-29 17:33N 52°26' E 002°16'1313.5
2015-Apr-29 16:33N 52°39' E 002°09'1313.0
2015-Apr-29 15:33N 52°48' E 001°53'1313.2
2015-Apr-29 14:34N 52°56' E 001°36'1312.5
2015-Apr-29 13:34N 53°07' E 001°24'1212.1
2015-Apr-29 12:32N 53°17' E 001°14'2411.8
2015-Apr-29 10:31N 53°30' E 000°40'1212.2
2015-Apr-29 09:33N 53°32' E 000°20'1111.0
2015-Apr-29 08:33N 53°35' E 000°03'1111.0
2015-Apr-29 07:33N 53°41' W 000°13'3 3.0
2015-Apr-29 06:32N 53°44' W 000°15'0 0.0
2015-Apr-29 05:32N 53°44' W 000°15'0 0.0
2015-Apr-29 04:32N 53°44' W 000°15'0 0.0
2015-Apr-29 03:29N 53°44' W 000°15'0 0.0
2015-Apr-29 02:32N 53°44' W 000°15'0 0.0
2015-Apr-29 01:32N 53°44' W 000°15'1 0.6
2015-Apr-29 00:34N 53°43' W 000°15'1010.3
2015-Apr-28 23:33N 53°36' W 000°02'1211.6
2015-Apr-28 22:34N 53°33' E 000°17'1313.3
2015-Apr-28 21:33N 53°30' E 000°39'3614.9
2015-Apr-28 19:09N 53°07' E 001°24'914.9
2015-Apr-28 18:34N 52°59' E 001°31'1414.0
2015-Apr-28 17:33N 52°50' E 001°49'1413.6
2015-Apr-28 16:33N 52°42' E 002°07'6014.3
2015-Apr-28 12:23N 52°10' E 003°29'1113.9
2015-Apr-28 11:33N 52°05' E 003°46'1211.9
2015-Apr-28 10:34N 51°59' E 004°03'1010.3
2015-Apr-28 09:34N 51°54' E 004°18'1 1.2
2015-Apr-28 08:28N 51°54' E 004°20'0 0.0
2015-Apr-28 07:04N 51°54' E 004°20'0 0.0
2015-Apr-28 06:16N 51°54' E 004°20'0 0.0
2015-Apr-28 01:04N 51°54' E 004°20'0 0.0
2015-Apr-28 00:22N 51°54' E 004°20'0 0.0
2015-Apr-27 23:28N 51°54' E 004°20'0 0.0
2015-Apr-27 13:10N 51°54' E 004°20'0 0.0
2015-Apr-27 12:07N 51°54' E 004°20'0 0.0
2015-Apr-27 11:10N 51°54' E 004°20'0 0.0
2015-Apr-27 07:22N 51°54' E 004°20'0 0.0
2015-Apr-27 06:22N 51°54' E 004°20'0 0.0
2015-Apr-27 05:13N 51°54' E 004°20'0 0.0
2015-Apr-27 04:28N 51°54' E 004°20'6 6.7
2015-Apr-27 03:33N 51°57' E 004°11'10 9.9
2015-Apr-27 02:33N 52°00' E 003°56'10 9.8
2015-Apr-27 01:33N 51°58' E 003°40'1110.8
2015-Apr-27 00:32N 51°55' E 003°23'1410.8
2015-Apr-26 23:16N 51°51' E 003°02'2910.3
2015-Apr-26 20:27N 51°35' E 002°23'1011.4
2015-Apr-26 19:33N 51°27' E 002°13'1211.7
2015-Apr-26 18:34N 51°16' E 002°06'1111.2
2015-Apr-26 17:34N 51°09' E 001°52'1211.5
2015-Apr-26 16:33N 51°02' E 001°38'  
2015-Apr-23 20:15N 39°39' W 009°58'2313.6
2015-Apr-23 18:34N 39°16' W 009°57'1313.4
2015-Apr-23 17:34N 39°03' W 009°56'1414.0
2015-Apr-23 16:33N 38°49' W 009°57'1313.3
2015-Apr-23 15:33N 38°36' W 009°55'1313.2
2015-Apr-23 14:33N 38°23' W 009°50'1514.3
2015-Apr-23 13:31N 38°09' W 009°45'1313.2
2015-Apr-23 12:33N 37°56' W 009°42'10 9.8
2015-Apr-23 11:33N 37°47' W 009°44'8 8.3
2015-Apr-23 10:33N 37°39' W 009°45'1313.0
2015-Apr-23 09:33N 37°26' W 009°50'1313.2
2015-Apr-23 08:33N 37°13' W 009°55'1313.4
2015-Apr-23 07:33N 37°00' W 009°59'  

Dump ship's entire track history